LFAT METAR and TAF | Updated Today

LFAT METAR

Le Touquet-Côte d'Opale Airport

Observation time: 19 min. ago

LFAT 052030Z AUTO 03003KT CAVOK 03/02 Q1044

Need help? Read our tutorial on how to read METARs or read the parsed version below.

Le Touquet-Côte d'Opale Airport (LFAT) METAR

  • Weather conditions on Sun, 05 Feb 2023 20:30:00 +0000 (19 min. ago):
  • Present conditions: Dry
  • Clouds: Clear skies
  • Visibility: Greater than 10 km
  • Wind: 30 degrees at 3 knots
  • Temperature: 3 celsius
  • Dew point: 2 celsius
  • Pressure: 1044 millibars
  • Remarks: None


Useful to know...

  • Codes: LFAT/LTQ
  • Airport elevation: 36ft
  • Municipality: Le Touquet-Paris-Plage
  • Country: France
  • Continent: Europe

LFAT TAF

Le Touquet-Côte d'Opale Airport

TAF LFAT 051400Z 0515/0524 04015KT 9999 SCT020 BECMG 0516/0518 02005KT
Observation time: 6:49 hr. ago
Need help? Read our tutorial on how to read TAFs or read the parsed version below.

Parsed version of TAF for Le Touquet-Côte d'Opale Airport (LFAT)

  • From 05 February at 15:00 UTC, to day 05 of the month at 24:00 UTC
  • Clouds: Scattered at 610 meters
  • Visibility: Greater than 10 km
  • Wind: 40 degrees at 15
  • Expected to arise soon, from 05 February at 16:00 UTC, to day 05 of the month at 18:00 UTC
  • Wind: 20 degrees at 5